This is the latest recevied weather packets stored in our database for station/object eb1ayw-13. If no packets are shown the sender has not sent any weather packets the latest 10 day(s).
| Time | Temp. | Humidity | Pressure | Rain* | Wind** | Luminosity | Snow |
|---|---|---|---|---|---|---|---|
| 1777665058 | 48.89° C | 12% | 1005.2 hPa | - | - | - | - |
| 1777664457 | 50° C | 12% | 1005 hPa | - | - | - | - |
| 1777663857 | 48.89° C | 12% | 1005.1 hPa | - | - | - | - |
| 1777663258 | 51.67° C | 11% | 1004.4 hPa | - | - | - | - |
| 1777662657 | 48.89° C | 12% | 1005.1 hPa | - | - | - | - |
| 1777660257 | 50° C | 11% | 1004.5 hPa | - | - | - | - |
| 1777659657 | 47.78° C | 11% | 1004.9 hPa | - | - | - | - |
| 1777659057 | 49.44° C | 10% | 1004.6 hPa | - | - | - | - |
| 1777658457 | 51.67° C | 9% | 1004.2 hPa | - | - | - | - |
| 1777657857 | 55° C | 8% | 1003.4 hPa | - | - | - | - |
| 1777656657 | 49.44° C | 10% | 1004.6 hPa | - | - | - | - |
| 1777656058 | 48.33° C | 11% | 1004.9 hPa | - | - | - | - |
| 1777655457 | 50.56° C | 10% | 1004.2 hPa | - | - | - | - |
| 1777654257 | 48.89° C | 10% | 1004.7 hPa | - | - | - | - |
| 1777653657 | 51.11° C | 9% | 1004.1 hPa | - | - | - | - |
| 1777653058 | 51.67° C | 9% | 1004.2 hPa | - | - | - | - |
| 1777652457 | 47.22° C | 10% | 1005.1 hPa | - | - | - | - |
| 1777651857 | 50.56° C | 9% | 1004.3 hPa | - | - | - | - |
| 1777651257 | 47.78° C | 11% | 1005 hPa | - | - | - | - |
| 1777650657 | 51.67° C | 9% | 1004.1 hPa | - | - | - | - |
| 1777650057 | 53.33° C | 9% | 1003.8 hPa | - | - | - | - |
| 1777649457 | 51.11° C | 10% | 1004.3 hPa | - | - | - | - |
| 1777648857 | 51.67° C | 9% | 1004.5 hPa | - | - | - | - |
| 1777648257 | 51.11° C | 9% | 1004.4 hPa | - | - | - | - |
| 1777647657 | 55.56° C | 8% | 1003.7 hPa | - | - | - | - |
* Rain since midnight (hover to see other rain measurements)
** Current wind speed in m/s (hover to see current wind gust speed)